createdAt,value
2018-12-29T00:01:23.626Z,101001.92
2018-12-29T00:03:49.723Z,101000.52
2018-12-29T00:06:15.794Z,101003.94
2018-12-29T00:08:41.856Z,101012.84
2018-12-29T00:11:07.934Z,101007.28
2018-12-29T00:13:34.045Z,101021.34
2018-12-29T00:16:00.585Z,101018.34
2018-12-29T00:18:27.015Z,101016.83
2018-12-29T00:20:53.509Z,101014.70
2018-12-29T00:23:19.866Z,101015.42
2018-12-29T00:25:49.319Z,101017.31
2018-12-29T00:28:15.715Z,101021.23
2018-12-29T00:30:42.072Z,101016.50
2018-12-29T00:33:08.617Z,101019.89
2018-12-29T00:35:34.714Z,101023.17
2018-12-29T00:38:00.799Z,101022.65
2018-12-29T00:40:26.870Z,101021.84
2018-12-29T00:42:52.889Z,101022.25
2018-12-29T00:45:18.929Z,101032.28
2018-12-29T00:47:45.032Z,101032.08
2018-12-29T00:50:11.043Z,101040.59
2018-12-29T00:52:37.137Z,101031.88
2018-12-29T00:55:03.133Z,101036.23
2018-12-29T00:57:29.214Z,101036.00
2018-12-29T00:59:55.326Z,101041.97
2018-12-29T01:02:21.381Z,101037.81
2018-12-29T01:04:47.722Z,101041.14
2018-12-29T01:07:13.859Z,101046.98
2018-12-29T01:09:39.910Z,101049.97
2018-12-29T01:12:06.006Z,101048.78
2018-12-29T01:14:32.389Z,101056.20
2018-12-29T01:16:58.499Z,101049.28
2018-12-29T01:19:24.643Z,101052.64
2018-12-29T01:21:50.750Z,101050.84
2018-12-29T01:24:16.834Z,101055.95
2018-12-29T01:26:42.880Z,101056.86
2018-12-29T01:29:08.997Z,101056.46
2018-12-29T01:31:35.454Z,101053.36
2018-12-29T01:34:01.557Z,101054.77
2018-12-29T01:36:27.679Z,101054.41
2018-12-29T01:38:54.009Z,101054.19
2018-12-29T01:41:20.129Z,101052.10
2018-12-29T01:43:46.426Z,101056.64
2018-12-29T01:46:12.469Z,101049.83
2018-12-29T01:48:38.555Z,101055.23
2018-12-29T01:51:04.869Z,101058.16
2018-12-29T01:53:31.114Z,101053.47
2018-12-29T01:55:57.270Z,101049.58
2018-12-29T01:58:23.357Z,101045.28
2018-12-29T02:00:49.459Z,101043.23
2018-12-29T02:03:15.764Z,101036.16
2018-12-29T02:05:41.897Z,101038.18
2018-12-29T02:08:08.047Z,101037.20
2018-12-29T02:10:34.110Z,101030.07
2018-12-29T02:13:06.216Z,101024.13
2018-12-29T02:15:27.983Z,101018.83
2018-12-29T02:17:54.023Z,101023.40
2018-12-29T02:20:20.064Z,101030.17
2018-12-29T02:22:46.119Z,101027.84
2018-12-29T02:25:12.140Z,101031.03
2018-12-29T02:27:38.242Z,101029.06
2018-12-29T02:30:04.253Z,101031.66
2018-12-29T02:32:30.362Z,101033.70
2018-12-29T02:34:56.697Z,101036.45
2018-12-29T02:37:22.756Z,101030.41
2018-12-29T02:39:48.774Z,101024.05
2018-12-29T02:42:14.875Z,101020.78
2018-12-29T02:44:40.884Z,101023.50
2018-12-29T02:47:07.000Z,101012.09
2018-12-29T02:49:33.340Z,101008.46
2018-12-29T02:51:59.469Z,101008.15
2018-12-29T02:54:25.549Z,101003.03
2018-12-29T02:56:51.649Z,100991.61
2018-12-29T02:59:17.738Z,100988.29
2018-12-29T03:01:44.099Z,100989.66
2018-12-29T03:04:10.429Z,100989.52
2018-12-29T03:06:36.478Z,100981.75
2018-12-29T03:09:02.925Z,100986.59
2018-12-29T03:11:29.002Z,100978.47
2018-12-29T03:13:55.055Z,100983.91
2018-12-29T03:16:21.123Z,100988.17
2018-12-29T03:18:47.525Z,100987.03
2018-12-29T03:21:13.603Z,100982.42
2018-12-29T03:23:39.607Z,100981.48
2018-12-29T03:26:05.626Z,100979.59
2018-12-29T03:28:31.713Z,100977.94
2018-12-29T03:30:58.163Z,100968.63
2018-12-29T03:33:24.464Z,100967.53
2018-12-29T03:35:50.540Z,100960.44
2018-12-29T03:38:16.589Z,100960.59
2018-12-29T03:40:42.733Z,100957.54
2018-12-29T03:43:08.852Z,100960.23
2018-12-29T03:45:34.918Z,100959.56
2018-12-29T03:48:00.933Z,100960.76
2018-12-29T03:50:26.952Z,100968.86
2018-12-29T03:52:53.311Z,100969.83
2018-12-29T03:55:19.681Z,100972.09
2018-12-29T03:57:45.998Z,100970.30
2018-12-29T04:00:11.995Z,100977.50
2018-12-29T04:02:38.025Z,100972.09
2018-12-29T04:05:04.134Z,100966.97
2018-12-29T04:07:30.206Z,100972.85
2018-12-29T04:09:56.525Z,100973.68
2018-12-29T04:12:22.541Z,100969.83
2018-12-29T04:14:48.584Z,100966.55
2018-12-29T04:17:14.964Z,100966.96
2018-12-29T04:19:41.053Z,100964.94
2018-12-29T04:22:07.133Z,100957.54
2018-12-29T04:24:33.236Z,100960.76
2018-12-29T04:26:59.582Z,100964.78
2018-12-29T04:29:25.891Z,100963.55
2018-12-29T04:31:52.006Z,100968.43
2018-12-29T04:34:18.224Z,100966.84
2018-12-29T04:36:44.538Z,100968.77
2018-12-29T04:39:10.597Z,100976.37
2018-12-29T04:41:36.678Z,100974.68
2018-12-29T04:44:02.972Z,100974.78
2018-12-29T04:46:29.074Z,100983.23
2018-12-29T04:48:55.159Z,100975.44
2018-12-29T04:51:21.181Z,100975.05
2018-12-29T04:53:47.274Z,100973.58
2018-12-29T04:56:13.298Z,100970.62
2018-12-29T04:58:39.653Z,100977.59
2018-12-29T05:01:05.690Z,100986.16
2018-12-29T05:03:31.955Z,100985.47
2018-12-29T05:05:57.975Z,100980.52
2018-12-29T05:08:24.005Z,100982.20
2018-12-29T05:10:50.360Z,100982.67
2018-12-29T05:13:16.375Z,100979.20
2018-12-29T05:15:42.754Z,100976.11
2018-12-29T05:18:09.141Z,100979.45
2018-12-29T05:20:35.423Z,100983.38
2018-12-29T05:23:01.427Z,100986.27
2018-12-29T05:25:27.760Z,100983.45
2018-12-29T05:27:53.778Z,100977.90
2018-12-29T05:30:19.867Z,100984.77
2018-12-29T05:32:45.889Z,100977.88
2018-12-29T05:35:11.991Z,100978.56
2018-12-29T05:37:38.386Z,100980.32
2018-12-29T05:40:04.732Z,100972.55
2018-12-29T05:42:31.031Z,100973.13
2018-12-29T05:44:57.124Z,100976.69
2018-12-29T05:47:23.214Z,100978.78
2018-12-29T05:49:49.329Z,100979.78
2018-12-29T05:52:15.407Z,100984.30
2018-12-29T05:54:41.515Z,100981.70
2018-12-29T05:57:07.537Z,100988.72
2018-12-29T05:59:33.560Z,100987.89
2018-12-29T06:01:59.604Z,100982.16
2018-12-29T06:04:26.394Z,100987.83
2018-12-29T06:06:52.481Z,100977.02
2018-12-29T06:09:18.789Z,100986.50
2018-12-29T06:11:44.883Z,100985.38
2018-12-29T06:14:10.962Z,100989.77
2018-12-29T06:16:37.049Z,100990.70
2018-12-29T06:19:03.082Z,100991.62
2018-12-29T06:21:29.444Z,100993.78
2018-12-29T06:23:55.450Z,100987.40
2018-12-29T06:26:21.765Z,100987.08
2018-12-29T06:28:48.107Z,100988.38
2018-12-29T06:31:14.421Z,100990.25
2018-12-29T06:33:40.765Z,100995.25
2018-12-29T06:36:06.804Z,100990.20
2018-12-29T06:38:32.796Z,101001.34
2018-12-29T06:40:58.812Z,100998.25
2018-12-29T06:43:24.845Z,100998.17
2018-12-29T06:45:51.190Z,100993.89
2018-12-29T06:48:17.210Z,100993.17
2018-12-29T06:50:43.308Z,100991.55
2018-12-29T06:53:09.361Z,100994.82
2018-12-29T06:55:35.741Z,100996.55
2018-12-29T06:58:01.825Z,101002.07
2018-12-29T07:00:28.201Z,101001.92
2018-12-29T07:02:54.262Z,100999.41
2018-12-29T07:05:20.309Z,101010.72
2018-12-29T07:07:46.380Z,101015.44
2018-12-29T07:10:12.509Z,101012.84
2018-12-29T07:12:38.865Z,101007.61
2018-12-29T07:15:04.937Z,101007.36
2018-12-29T07:17:30.977Z,101012.66
2018-12-29T07:19:57.310Z,101009.75
2018-12-29T07:22:23.324Z,101016.92
2018-12-29T07:24:49.697Z,101021.89
2018-12-29T07:27:15.702Z,101015.30
2018-12-29T07:29:42.053Z,101013.67
2018-12-29T07:32:08.458Z,101013.64
2018-12-29T07:34:35.055Z,101015.73
2018-12-29T07:37:01.554Z,101025.89
2018-12-29T07:39:27.643Z,101023.55
2018-12-29T07:41:54.025Z,101033.02
2018-12-29T07:44:20.077Z,101031.97
2018-12-29T07:46:49.631Z,101030.47
2018-12-29T07:49:13.844Z,101034.93
2018-12-29T07:51:40.248Z,101039.63
2018-12-29T07:54:06.537Z,101035.66
2018-12-29T07:56:32.901Z,101036.89
2018-12-29T07:58:59.008Z,101038.91
2018-12-29T08:01:25.134Z,101036.74
2018-12-29T08:03:51.210Z,101036.67
2018-12-29T08:06:17.301Z,101034.98
2018-12-29T08:08:43.633Z,101033.03
2018-12-29T08:11:10.097Z,101042.26
2018-12-29T08:13:36.531Z,101041.27
2018-12-29T08:16:02.974Z,101041.35
2018-12-29T08:18:29.371Z,101041.68
2018-12-29T08:20:55.385Z,101047.45
2018-12-29T08:23:21.705Z,101044.64
2018-12-29T08:25:47.845Z,101052.49
2018-12-29T08:28:13.874Z,101055.23
2018-12-29T08:30:39.966Z,101050.30
2018-12-29T08:33:06.454Z,101055.30
2018-12-29T08:35:32.479Z,101062.41
2018-12-29T08:37:58.550Z,101056.20
2018-12-29T08:40:24.571Z,101063.95
2018-12-29T08:42:50.924Z,101063.31
2018-12-29T08:45:17.009Z,101062.05
2018-12-29T08:47:43.121Z,101064.64
2018-12-29T08:50:12.939Z,101054.66
2018-12-29T08:52:37.004Z,101056.28
2018-12-29T08:55:03.055Z,101053.34
2018-12-29T08:57:29.565Z,101050.44
2018-12-29T08:59:55.892Z,101054.73
2018-12-29T09:02:22.173Z,101051.88
2018-12-29T09:04:48.218Z,101045.72
2018-12-29T09:07:14.674Z,101049.14
2018-12-29T09:09:40.677Z,101049.75
2018-12-29T09:12:06.724Z,101054.00
2018-12-29T09:14:33.054Z,101057.09
2018-12-29T09:16:59.095Z,101057.32
2018-12-29T09:19:27.369Z,101064.28
2018-12-29T09:21:52.948Z,101060.20
2018-12-29T09:24:18.961Z,101057.40
2018-12-29T09:26:45.326Z,101061.87
2018-12-29T09:29:11.385Z,101062.12
2018-12-29T09:31:37.466Z,101063.13
2018-12-29T09:34:03.916Z,101059.53
2018-12-29T09:36:29.990Z,101057.83
2018-12-29T09:38:56.000Z,101058.03
2018-12-29T09:41:22.062Z,101067.34
2018-12-29T09:43:48.215Z,101060.71
2018-12-29T09:46:14.274Z,101062.05
2018-12-29T09:48:40.384Z,101057.37
2018-12-29T09:51:06.803Z,101052.98
2018-12-29T09:53:33.248Z,101051.95
2018-12-29T09:55:59.337Z,101047.80
2018-12-29T09:58:25.940Z,101045.47
2018-12-29T10:00:52.443Z,101036.73
2018-12-29T10:03:18.932Z,101034.14
2018-12-29T10:05:44.997Z,101044.08
2018-12-29T10:08:11.110Z,101049.77
2018-12-29T10:10:37.131Z,101042.71
2018-12-29T10:13:03.270Z,101032.38
2018-12-29T10:15:29.364Z,101023.65
2018-12-29T10:17:55.511Z,101006.94
2018-12-29T10:20:21.587Z,101013.31
2018-12-29T10:22:48.073Z,101016.37
2018-12-29T10:25:14.081Z,101020.56
2018-12-29T10:27:42.909Z,101025.03
2018-12-29T10:30:09.331Z,101019.63
2018-12-29T10:32:35.760Z,101019.89
2018-12-29T10:35:01.880Z,101014.47
2018-12-29T10:37:29.116Z,101015.48
2018-12-29T10:39:55.306Z,101025.41
2018-12-29T10:42:21.336Z,101022.84
2018-12-29T10:44:47.421Z,101018.59
2018-12-29T10:47:13.446Z,101017.27
2018-12-29T10:49:39.540Z,101012.45
2018-12-29T10:52:05.584Z,101012.86
2018-12-29T10:54:32.142Z,100999.18
2018-12-29T10:56:58.566Z,100991.38
2018-12-29T10:59:25.008Z,100990.52
2018-12-29T11:01:51.124Z,100991.32
2018-12-29T11:04:18.381Z,100983.50
2018-12-29T11:06:47.992Z,100987.38
2018-12-29T11:09:14.119Z,100985.38
2018-12-29T11:11:40.159Z,100980.27
2018-12-29T11:14:06.270Z,100980.91
2018-12-29T11:16:32.372Z,100974.45
2018-12-29T11:18:58.739Z,100979.10
2018-12-29T11:21:24.785Z,100974.80
2018-12-29T11:23:50.824Z,100973.92
2018-12-29T11:26:16.922Z,100972.50
2018-12-29T11:28:42.954Z,100978.61
2018-12-29T11:31:09.300Z,100963.27
2018-12-29T11:33:35.713Z,100959.41
2018-12-29T11:36:02.081Z,100958.70
2018-12-29T11:38:28.430Z,100952.98
2018-12-29T11:40:54.785Z,100945.22
2018-12-29T11:43:20.862Z,100945.06
2018-12-29T11:45:46.952Z,100939.92
2018-12-29T11:48:13.363Z,100941.09
2018-12-29T11:50:39.480Z,100937.36
2018-12-29T11:53:05.925Z,100923.66
2018-12-29T11:55:32.050Z,100923.23
2018-12-29T11:57:58.778Z,100924.98
2018-12-29T12:00:25.229Z,100916.09
2018-12-29T12:02:51.311Z,100917.28
2018-12-29T12:05:17.441Z,100909.52
2018-12-29T12:07:43.533Z,100902.72
2018-12-29T12:10:10.054Z,100917.73
2018-12-29T12:12:36.974Z,100915.17
2018-12-29T12:15:03.425Z,100909.23
2018-12-29T12:17:29.513Z,100903.01
2018-12-29T12:19:55.621Z,100906.85
2018-12-29T12:22:22.121Z,100891.33
2018-12-29T12:24:48.537Z,100896.28
2018-12-29T12:27:14.997Z,100888.80
2018-12-29T12:29:41.717Z,100890.34
2018-12-29T12:32:07.828Z,100889.84
2018-12-29T12:34:33.957Z,100885.87
2018-12-29T12:37:00.309Z,100885.81
2018-12-29T12:39:26.444Z,100892.64
2018-12-29T12:41:52.604Z,100885.90
2018-12-29T12:44:18.690Z,100881.22
2018-12-29T12:46:44.799Z,100881.53
2018-12-29T12:49:11.225Z,100881.37
2018-12-29T12:51:37.380Z,100882.79
2018-12-29T12:54:03.783Z,100882.59
2018-12-29T12:56:29.890Z,100887.56
2018-12-29T12:58:56.004Z,100879.90
2018-12-29T13:01:22.482Z,100880.62
2018-12-29T13:03:48.572Z,100880.27
2018-12-29T13:06:14.928Z,100877.27
2018-12-29T13:08:41.080Z,100877.43
2018-12-29T13:11:07.208Z,100875.07
2018-12-29T13:13:33.281Z,100881.03
2018-12-29T13:15:59.660Z,100877.65
2018-12-29T13:18:26.009Z,100866.84
2018-12-29T13:20:52.129Z,100869.67
2018-12-29T13:23:18.471Z,100872.48
2018-12-29T13:25:44.584Z,100861.84
2018-12-29T13:28:10.694Z,100859.61
2018-12-29T13:30:36.837Z,100864.12
2018-12-29T13:33:02.955Z,100866.01
2018-12-29T13:35:29.035Z,100860.93
2018-12-29T13:37:55.223Z,100859.34
2018-12-29T13:40:21.304Z,100859.64
2018-12-29T13:42:47.658Z,100853.53
2018-12-29T13:45:13.775Z,100845.66
2018-12-29T13:47:40.170Z,100850.07
2018-12-29T13:50:06.519Z,100864.31
2018-12-29T13:52:32.656Z,100854.95
2018-12-29T13:54:59.019Z,100852.95
2018-12-29T13:57:27.180Z,100849.61
2018-12-29T13:59:53.292Z,100846.02
2018-12-29T14:02:19.381Z,100850.42
2018-12-29T14:04:45.485Z,100850.64
2018-12-29T14:07:11.947Z,100844.27
2018-12-29T14:09:38.385Z,100844.16
2018-12-29T14:12:04.786Z,100839.99
2018-12-29T14:14:31.162Z,100842.76
2018-12-29T14:16:57.540Z,100844.67
2018-12-29T14:19:23.629Z,100849.58
2018-12-29T14:21:49.753Z,100840.42
2018-12-29T14:24:16.186Z,100837.68
2018-12-29T14:26:42.690Z,100832.06
2018-12-29T14:29:08.790Z,100824.03
2018-12-29T14:31:34.999Z,100830.30
2018-12-29T14:34:01.032Z,100830.85
2018-12-29T14:36:27.124Z,100847.72
2018-12-29T14:38:53.361Z,100843.91
2018-12-29T14:41:19.853Z,100840.98
2018-12-29T14:43:46.233Z,100851.11
2018-12-29T14:46:12.613Z,100859.66
2018-12-29T14:48:39.068Z,100868.13
2018-12-29T14:51:05.388Z,100869.48
2018-12-29T14:53:31.505Z,100870.73
2018-12-29T14:55:58.113Z,100865.83
2018-12-29T14:58:24.229Z,100868.16
2018-12-29T15:00:50.311Z,100865.74
2018-12-29T15:03:16.825Z,100865.38
2018-12-29T15:05:43.136Z,100865.17
2018-12-29T15:08:09.528Z,100870.33
2018-12-29T15:10:36.021Z,100859.03
2018-12-29T15:13:02.168Z,100862.44
2018-12-29T15:15:28.329Z,100861.03
2018-12-29T15:17:54.789Z,100856.27
2018-12-29T15:20:21.566Z,100850.50
2018-12-29T15:22:47.654Z,100855.53
2018-12-29T15:25:13.776Z,100838.21
2018-12-29T15:27:39.979Z,100839.69
2018-12-29T15:30:06.432Z,100852.80
2018-12-29T15:32:32.560Z,100845.14
2018-12-29T15:34:59.037Z,100829.80
2018-12-29T15:37:25.119Z,100825.21
2018-12-29T15:39:51.295Z,100821.45
2018-12-29T15:42:18.039Z,100821.75
2018-12-29T15:44:44.434Z,100822.12
2018-12-29T15:47:10.527Z,100822.52
2018-12-29T15:49:36.896Z,100827.44
2018-12-29T15:52:03.022Z,100813.58
2018-12-29T15:54:29.897Z,100803.70
2018-12-29T15:56:55.998Z,100803.05
2018-12-29T15:59:22.074Z,100807.18
2018-12-29T16:01:48.464Z,100793.86
2018-12-29T16:04:14.840Z,100801.59
2018-12-29T16:06:41.198Z,100792.58
2018-12-29T16:09:07.361Z,100790.78
2018-12-29T16:11:33.994Z,100787.55
2018-12-29T16:14:00.164Z,100791.78
2018-12-29T16:16:26.280Z,100781.77
2018-12-29T16:18:58.673Z,100773.97
2018-12-29T16:21:20.125Z,100771.12
2018-12-29T16:23:46.518Z,100771.12
2018-12-29T16:26:13.331Z,100764.56
2018-12-29T16:28:40.360Z,100754.78
2018-12-29T16:31:06.968Z,100753.36
2018-12-29T16:33:33.803Z,100747.66
2018-12-29T16:36:00.309Z,100735.00
2018-12-29T16:38:26.431Z,100734.22
2018-12-29T16:40:57.817Z,100733.03
2018-12-29T16:43:20.582Z,100728.13
2018-12-29T16:45:48.260Z,100725.69
2018-12-29T16:48:14.871Z,100732.44
2018-12-29T16:50:42.358Z,100730.20
2018-12-29T16:53:08.505Z,100724.76
2018-12-29T16:55:34.655Z,100729.81
2018-12-29T16:58:01.212Z,100723.33
2018-12-29T17:00:27.341Z,100730.28
2018-12-29T17:02:53.428Z,100728.66
2018-12-29T17:05:19.535Z,100728.77
2018-12-29T17:07:46.049Z,100725.02
2018-12-29T17:10:12.482Z,100724.41
2018-12-29T17:12:38.937Z,100731.09
2018-12-29T17:15:05.770Z,100717.66
2018-12-29T17:17:31.858Z,100710.81
2018-12-29T17:19:58.006Z,100706.03
2018-12-29T17:22:24.104Z,100706.36
2018-12-29T17:24:50.566Z,100693.66
2018-12-29T17:27:16.930Z,100694.13
2018-12-29T17:29:43.041Z,100701.10
2018-12-29T17:32:09.407Z,100687.61
2018-12-29T17:34:35.882Z,100691.70
2018-12-29T17:37:02.443Z,100693.32
2018-12-29T17:39:28.514Z,100685.15
2018-12-29T17:41:58.451Z,100682.44
2018-12-29T17:44:24.565Z,100681.27
2018-12-29T17:46:50.946Z,100684.55
2018-12-29T17:49:23.067Z,100678.74
2018-12-29T17:51:45.390Z,100677.93
2018-12-29T17:54:11.490Z,100675.29
2018-12-29T17:56:37.623Z,100670.90
2018-12-29T17:59:03.947Z,100671.28
2018-12-29T18:01:30.484Z,100671.66
2018-12-29T18:03:56.561Z,100665.84
2018-12-29T18:06:23.022Z,100665.05
2018-12-29T18:08:49.100Z,100669.38
2018-12-29T18:11:15.246Z,100671.03
2018-12-29T18:13:41.335Z,100665.36
2018-12-29T18:16:08.967Z,100664.47
2018-12-29T18:18:35.333Z,100671.88
2018-12-29T18:21:01.430Z,100680.30
2018-12-29T18:23:28.177Z,100681.36
2018-12-29T18:25:54.288Z,100679.77
2018-12-29T18:28:20.622Z,100689.01
2018-12-29T18:30:46.764Z,100695.14
2018-12-29T18:33:13.666Z,100693.28
2018-12-29T18:35:39.784Z,100692.91
2018-12-29T18:38:05.884Z,100690.84
2018-12-29T18:40:32.375Z,100689.09
2018-12-29T18:42:58.516Z,100691.67
2018-12-29T18:45:25.336Z,100697.24
2018-12-29T18:47:51.496Z,100692.51
2018-12-29T18:50:17.589Z,100696.19
2018-12-29T18:52:43.713Z,100693.75
2018-12-29T18:55:10.456Z,100702.38
2018-12-29T18:57:36.872Z,100687.41
2018-12-29T19:00:02.971Z,100690.81
2018-12-29T19:02:29.114Z,100687.13
2018-12-29T19:04:55.202Z,100688.67
2018-12-29T19:07:21.829Z,100686.08
2018-12-29T19:09:48.196Z,100670.92
2018-12-29T19:12:14.294Z,100667.69
2018-12-29T19:14:40.395Z,100662.61
2018-12-29T19:17:06.476Z,100624.17
2018-12-29T19:19:33.138Z,100616.29
2018-12-29T19:21:59.502Z,100591.95
2018-12-29T19:24:25.631Z,100576.78
2018-12-29T19:26:51.708Z,100570.16
2018-12-29T19:29:17.816Z,100560.09
2018-12-29T19:31:44.665Z,100542.43
2018-12-29T19:34:11.727Z,100534.37
2018-12-29T19:36:37.824Z,100513.31
2018-12-29T19:39:04.220Z,100500.58
2018-12-29T19:41:30.315Z,100502.24
2018-12-29T19:43:56.705Z,100497.78
2018-12-29T19:46:23.557Z,100485.70
2018-12-29T19:48:49.709Z,100479.16
2018-12-29T19:51:15.839Z,100479.88
2018-12-29T19:53:42.252Z,100478.86
2018-12-29T19:56:08.347Z,100471.09
2018-12-29T19:58:34.463Z,100477.93
2018-12-29T20:01:00.592Z,100463.50
2018-12-29T20:03:26.703Z,100448.56
2018-12-29T20:05:53.119Z,100439.50
2018-12-29T20:08:19.207Z,100420.77
2018-12-29T20:10:45.521Z,100396.47
2018-12-29T20:13:11.901Z,100383.88
2018-12-29T20:15:37.987Z,100363.25
2018-12-29T20:18:04.400Z,100377.04
2018-12-29T20:20:30.517Z,100369.01
2018-12-29T20:22:56.602Z,100370.80
2018-12-29T20:25:25.037Z,100396.04
2018-12-29T20:27:51.205Z,100409.55
2018-12-29T20:30:17.693Z,100414.17
2018-12-29T20:32:44.043Z,100423.61
2018-12-29T20:35:10.437Z,100405.30
2018-12-29T20:37:36.514Z,100393.19
2018-12-29T20:40:02.633Z,100377.56
2018-12-29T20:42:28.733Z,100375.09
2018-12-29T20:44:57.108Z,100375.23
2018-12-29T20:47:23.172Z,100369.44
2018-12-29T20:49:49.571Z,100362.31
2018-12-29T20:52:15.918Z,100346.77
2018-12-29T20:54:42.068Z,100352.56
2018-12-29T20:57:08.453Z,100348.78
2018-12-29T20:59:34.870Z,100349.59
2018-12-29T21:02:01.324Z,100340.79
2018-12-29T21:04:27.848Z,100336.28
2018-12-29T21:06:54.264Z,100327.75
2018-12-29T21:09:20.362Z,100328.80
2018-12-29T21:11:46.745Z,100323.78
2018-12-29T21:14:13.386Z,100313.97
2018-12-29T21:16:39.826Z,100304.97
2018-12-29T21:19:06.042Z,100298.11
2018-12-29T21:21:32.439Z,100294.51
2018-12-29T21:23:58.580Z,100286.56
2018-12-29T21:26:24.694Z,100286.63
2018-12-29T21:28:51.152Z,100280.87
2018-12-29T21:31:17.839Z,100284.98
2018-12-29T21:33:43.942Z,100270.62
2018-12-29T21:36:10.406Z,100268.00
2018-12-29T21:38:37.975Z,100257.47
2018-12-29T21:41:04.104Z,100258.32
2018-12-29T21:43:30.492Z,100248.05
2018-12-29T21:45:56.603Z,100253.37
2018-12-29T21:48:23.083Z,100239.67
2018-12-29T21:50:49.175Z,100234.56
2018-12-29T21:53:15.577Z,100232.48
2018-12-29T21:55:43.271Z,100225.24
2018-12-29T21:58:09.508Z,100225.53
2018-12-29T22:00:35.906Z,100215.60
2018-12-29T22:03:01.987Z,100217.37
2018-12-29T22:05:28.340Z,100216.98
2018-12-29T22:07:54.517Z,100213.66
2018-12-29T22:10:21.525Z,100211.75
2018-12-29T22:12:47.893Z,100213.41
2018-12-29T22:15:14.001Z,100213.55
2018-12-29T22:17:40.187Z,100208.44
2018-12-29T22:20:06.612Z,100203.75
2018-12-29T22:22:32.726Z,100195.41
2018-12-29T22:24:58.857Z,100190.77
2018-12-29T22:27:25.132Z,100196.89
2018-12-29T22:29:51.261Z,100192.61
2018-12-29T22:32:17.389Z,100190.80
2018-12-29T22:34:43.501Z,100180.67
2018-12-29T22:37:10.212Z,100176.50
2018-12-29T22:39:36.251Z,100162.64
2018-12-29T22:42:02.384Z,100164.90
2018-12-29T22:44:28.537Z,100162.44
2018-12-29T22:46:54.629Z,100157.27
2018-12-29T22:49:21.068Z,100147.52
2018-12-29T22:51:47.471Z,100144.28
2018-12-29T22:54:13.678Z,100148.06
2018-12-29T22:56:39.875Z,100141.19
2018-12-29T22:59:05.990Z,100135.42
2018-12-29T23:01:32.103Z,100131.39
2018-12-29T23:03:58.496Z,100124.16
2018-12-29T23:06:24.986Z,100130.14
2018-12-29T23:08:51.052Z,100115.11
2018-12-29T23:11:17.520Z,100124.98
2018-12-29T23:13:43.970Z,100122.45
2018-12-29T23:16:10.135Z,100114.83
2018-12-29T23:18:36.311Z,100110.73
2018-12-29T23:21:02.400Z,100105.23
2018-12-29T23:23:28.772Z,100108.98
2018-12-29T23:25:55.517Z,100102.34
2018-12-29T23:28:21.628Z,100101.30
2018-12-29T23:30:48.229Z,100100.24
2018-12-29T23:33:14.585Z,100104.13
2018-12-29T23:35:40.803Z,100102.13
2018-12-29T23:38:07.799Z,100096.79
2018-12-29T23:40:34.153Z,100089.17
2018-12-29T23:43:00.269Z,100094.12
2018-12-29T23:45:28.542Z,100085.79
2018-12-29T23:47:56.746Z,100082.94
2018-12-29T23:50:22.796Z,100087.27
2018-12-29T23:52:49.829Z,100077.80
2018-12-29T23:55:16.362Z,100087.53
2018-12-29T23:57:43.020Z,100082.95
